Time;durP1;ratioP1;P1;durP2;ratioP2;P2;SDS_P1;SDS_P2;PMS_P1;PMS_P2;Temp;Humidity;BMP_temperature;BMP_pressure;BME280_temperature;BME280_humidity;BME280_pressure;Samples;Min_cycle;Max_cycle;Signal;HPM_P1;HPM_P2
2023/10/16 00:00:42;;;;;;;3.23;1.33;;;;;;;;;;5069106;28;20230;-66
2023/10/16 00:03:12;;;;;;;3.67;1.37;;;;;;;;;;5070071;28;20195;-66
2023/10/16 00:05:44;;;;;;;2.03;1.30;;;;;;;;;;5076876;28;20203;-66
2023/10/16 00:08:12;;;;;;;2.20;1.50;;;;;;;;;;5074115;28;20285;-66
2023/10/16 00:10:40;;;;;;;2.77;1.73;;;;;;;;;;5068259;28;20203;-66
2023/10/16 00:13:11;;;;;;;1.67;1.57;;;;;;;;;;5071960;28;20203;-67
2023/10/16 00:15:41;;;;;;;3.90;1.70;;;;;;;;;;5071821;28;20195;-66
2023/10/16 00:18:13;;;;;;;2.40;1.50;;;;;;;;;;5074963;28;20257;-66
2023/10/16 00:20:41;;;;;;;3.33;1.47;;;;;;;;;;5074111;28;20218;-66
2023/10/16 00:23:10;;;;;;;1.83;1.33;;;;;;;;;;5076281;28;20219;-66
2023/10/16 00:25:39;;;;;;;1.33;1.10;;;;;;;;;;5071320;28;20282;-67
2023/10/16 00:28:08;;;;;;;2.53;1.33;;;;;;;;;;5078955;28;20349;-66
2023/10/16 00:30:35;;;;;;;1.30;1.20;;;;;;;;;;5070801;28;20248;-66
2023/10/16 00:33:04;;;;;;;2.27;1.23;;;;;;;;;;5074513;28;20202;-66
2023/10/16 00:35:32;;;;;;;1.30;1.20;;;;;;;;;;5071601;28;20252;-66
2023/10/16 00:38:02;;;;;;;3.60;1.50;;;;;;;;;;5070657;28;20265;-66
2023/10/16 00:40:32;;;;;;;2.00;1.40;;;;;;;;;;5071440;28;20203;-66
2023/10/16 00:43:09;;;;;;;3.23;1.50;;;;;;;;;;5075947;28;20206;-67
2023/10/16 00:45:46;;;;;;;1.50;1.30;;;;;;;;;;5072284;28;20207;-66
2023/10/16 00:48:15;;;;;;;1.63;1.30;;;;;;;;;;5070824;28;20203;-66
2023/10/16 00:50:42;;;;;;;3.27;1.40;;;;;;;;;;5069150;28;20233;-72
2023/10/16 00:53:09;;;;;;;1.83;1.23;;;;;;;;;;5070514;28;20292;-73
2023/10/16 00:55:36;;;;;;;2.50;1.20;;;;;;;;;;5074076;28;20203;-73
2023/10/16 00:58:06;;;;;;;1.80;1.20;;;;;;;;;;5073885;28;20229;-73
2023/10/16 01:00:35;;;;;;;4.10;1.50;;;;;;;;;;5075658;28;20202;-73
2023/10/16 01:03:05;;;;;;;2.33;1.50;;;;;;;;;;5069827;28;20290;-71
2023/10/16 01:05:33;;;;;;;1.60;1.30;;;;;;;;;;5070075;28;20210;-73
2023/10/16 01:08:00;;;;;;;1.00;1.00;;;;;;;;;;5076816;28;20199;-73
2023/10/16 01:10:27;;;;;;;1.87;1.40;;;;;;;;;;5076264;28;20199;-72
2023/10/16 01:12:58;;;;;;;3.17;1.70;;;;;;;;;;5069712;28;20209;-72
2023/10/16 01:15:27;;;;;;;2.63;1.60;;;;;;;;;;5072335;28;20206;-71
2023/10/16 01:17:54;;;;;;;1.87;1.37;;;;;;;;;;5073847;28;20223;-72
2023/10/16 01:20:23;;;;;;;2.47;1.67;;;;;;;;;;5073779;28;20201;-73
2023/10/16 01:22:52;;;;;;;3.03;1.50;;;;;;;;;;5068302;28;20242;-71
2023/10/16 01:25:20;;;;;;;1.50;1.37;;;;;;;;;;5068469;28;20234;-72
2023/10/16 01:27:48;;;;;;;2.33;1.53;;;;;;;;;;5071834;28;20201;-73
2023/10/16 01:30:19;;;;;;;1.53;1.20;;;;;;;;;;5078561;28;20247;-72
2023/10/16 01:32:46;;;;;;;1.70;1.50;;;;;;;;;;5071678;28;20206;-73
2023/10/16 01:35:13;;;;;;;2.50;1.70;;;;;;;;;;5069901;28;20342;-73
2023/10/16 01:37:41;;;;;;;2.20;1.40;;;;;;;;;;5068345;28;20226;-73
2023/10/16 01:40:17;;;;;;;2.17;1.30;;;;;;;;;;5073230;28;20206;-73
2023/10/16 01:42:45;;;;;;;2.13;1.63;;;;;;;;;;5073609;28;20249;-73
2023/10/16 01:45:14;;;;;;;1.73;1.23;;;;;;;;;;5069521;28;20231;-73
2023/10/16 01:47:41;;;;;;;1.93;1.33;;;;;;;;;;5072307;28;20191;-72
2023/10/16 01:50:17;;;;;;;1.93;1.43;;;;;;;;;;5071956;28;20207;-73
2023/10/16 01:52:44;;;;;;;1.93;1.40;;;;;;;;;;5078984;28;20206;-72
2023/10/16 01:55:16;;;;;;;1.30;1.20;;;;;;;;;;5067774;28;20207;-73
2023/10/16 01:57:44;;;;;;;1.60;1.20;;;;;;;;;;5067896;28;20230;-73
2023/10/16 02:00:17;;;;;;;1.60;1.50;;;;;;;;;;5072755;28;20206;-67
2023/10/16 02:02:45;;;;;;;3.87;1.60;;;;;;;;;;5071949;28;20205;-67
2023/10/16 02:05:13;;;;;;;2.40;1.40;;;;;;;;;;5069130;28;20199;-67
2023/10/16 02:07:43;;;;;;;2.17;1.30;;;;;;;;;;5072831;28;20201;-67
2023/10/16 02:10:13;;;;;;;1.60;1.43;;;;;;;;;;5070718;28;20203;-67
2023/10/16 02:12:40;;;;;;;4.00;1.40;;;;;;;;;;5072510;28;20198;-67
2023/10/16 02:15:08;;;;;;;2.00;1.43;;;;;;;;;;5068979;28;20287;-66
2023/10/16 02:17:42;;;;;;;2.33;1.60;;;;;;;;;;5075596;28;20236;-66
2023/10/16 02:20:12;;;;;;;2.07;1.60;;;;;;;;;;5076890;28;20214;-67
2023/10/16 02:22:41;;;;;;;1.57;1.40;;;;;;;;;;5079045;28;20290;-66
2023/10/16 02:25:10;;;;;;;2.20;1.60;;;;;;;;;;5073243;28;20198;-67
2023/10/16 02:27:37;;;;;;;3.03;1.90;;;;;;;;;;5080041;28;20413;-66
2023/10/16 02:30:15;;;;;;;3.37;2.70;;;;;;;;;;5079705;28;20202;-67
2023/10/16 02:32:44;;;;;;;3.87;3.07;;;;;;;;;;5073215;28;20234;-67
2023/10/16 02:35:14;;;;;;;4.93;2.50;;;;;;;;;;5078112;28;20202;-66
2023/10/16 02:37:41;;;;;;;2.60;2.03;;;;;;;;;;5076648;28;20222;-66
2023/10/16 02:40:11;;;;;;;4.27;2.30;;;;;;;;;;5073268;28;20199;-67
2023/10/16 02:42:40;;;;;;;2.47;2.10;;;;;;;;;;5071023;28;20198;-67
2023/10/16 02:45:18;;;;;;;2.33;1.70;;;;;;;;;;5078846;28;20202;-67
2023/10/16 02:47:46;;;;;;;2.00;1.67;;;;;;;;;;5071737;28;20349;-67
2023/10/16 02:50:16;;;;;;;2.00;1.80;;;;;;;;;;5084260;28;20213;-67
2023/10/16 02:52:43;;;;;;;2.27;1.97;;;;;;;;;;5076606;28;20225;-66
2023/10/16 02:55:11;;;;;;;1.77;1.60;;;;;;;;;;5081521;28;20202;-67
2023/10/16 02:57:40;;;;;;;3.23;1.73;;;;;;;;;;5073181;28;20219;-67
2023/10/16 03:00:11;;;;;;;2.30;2.00;;;;;;;;;;5077641;28;20211;-67
2023/10/16 03:02:46;;;;;;;3.57;2.10;;;;;;;;;;5074231;28;20214;-68
2023/10/16 03:05:22;;;;;;;1.97;1.80;;;;;;;;;;5074378;28;20203;-66
2023/10/16 03:07:50;;;;;;;2.73;1.90;;;;;;;;;;5070805;28;20202;-67
2023/10/16 03:10:17;;;;;;;3.33;2.17;;;;;;;;;;5073230;28;20230;-73
2023/10/16 03:12:44;;;;;;;3.30;2.07;;;;;;;;;;5072958;28;20217;-73
2023/10/16 03:15:20;;;;;;;2.67;1.97;;;;;;;;;;5075195;28;20251;-73
2023/10/16 03:17:50;;;;;;;2.07;1.73;;;;;;;;;;5071443;28;20222;-72
2023/10/16 03:20:22;;;;;;;2.70;1.73;;;;;;;;;;5077818;28;20218;-73
2023/10/16 03:22:50;;;;;;;2.23;1.73;;;;;;;;;;5071901;28;20199;-73
2023/10/16 03:25:50;;;;;;;1.97;1.60;;;;;;;;;;5071943;28;20214;-73
2023/10/16 03:28:17;;;;;;;3.00;1.97;;;;;;;;;;5069803;28;20195;-73
2023/10/16 03:30:44;;;;;;;2.30;1.63;;;;;;;;;;5073904;28;20206;-73
2023/10/16 03:33:13;;;;;;;2.10;1.70;;;;;;;;;;5073223;28;20233;-73
2023/10/16 03:35:45;;;;;;;2.17;1.80;;;;;;;;;;5074178;28;20198;-74
2023/10/16 03:38:12;;;;;;;3.00;1.80;;;;;;;;;;5069266;28;20223;-72
2023/10/16 03:40:41;;;;;;;2.37;1.93;;;;;;;;;;5073697;28;20216;-73
2023/10/16 03:43:09;;;;;;;2.20;2.00;;;;;;;;;;5074857;28;20293;-73
2023/10/16 03:45:40;;;;;;;2.53;2.10;;;;;;;;;;5071772;28;20199;-73
2023/10/16 03:48:10;;;;;;;23.87;2.70;;;;;;;;;;5071044;28;20203;-73
2023/10/16 03:50:38;;;;;;;9.77;2.13;;;;;;;;;;5072982;28;20500;-73
2023/10/16 03:53:08;;;;;;;4.20;2.10;;;;;;;;;;5072223;28;20199;-74
2023/10/16 03:55:43;;;;;;;6.07;2.10;;;;;;;;;;5073021;28;20202;-73
2023/10/16 03:58:12;;;;;;;2.93;2.10;;;;;;;;;;5072000;28;20214;-73
2023/10/16 04:00:50;;;;;;;4.93;1.90;;;;;;;;;;5071006;28;20199;-73
2023/10/16 04:03:18;;;;;;;1.90;1.70;;;;;;;;;;5071722;28;20292;-73
2023/10/16 04:05:48;;;;;;;2.03;1.83;;;;;;;;;;5074351;28;20210;-73
2023/10/16 04:08:18;;;;;;;2.30;2.10;;;;;;;;;;5071128;28;20205;-73
2023/10/16 04:10:47;;;;;;;1.90;1.80;;;;;;;;;;5069222;28;20213;-73
2023/10/16 04:13:15;;;;;;;2.60;2.00;;;;;;;;;;5072205;28;20198;-73
2023/10/16 04:18:30;;;;;;;2.17;2.03;;;;;;;;;;5070938;28;20229;-73
2023/10/16 04:21:30;;;;;;;2.40;2.20;;;;;;;;;;5069097;28;20297;-73
2023/10/16 04:23:58;;;;;;;2.53;2.13;;;;;;;;;;5071634;28;20210;-73
2023/10/16 04:29:26;;;;;;;4.27;2.40;;;;;;;;;;5062923;28;20199;-74
2023/10/16 04:31:55;;;;;;;2.30;2.10;;;;;;;;;;5072072;28;20316;-72
2023/10/16 04:34:31;;;;;;;2.30;2.10;;;;;;;;;;5073343;28;20235;-73
2023/10/16 04:43:03;;;;;;;2.07;1.83;;;;;;;;;;5074768;28;20209;-73
2023/10/16 04:45:39;;;;;;;2.00;1.80;;;;;;;;;;5074523;28;20260;-73
2023/10/16 04:48:23;;;;;;;1.73;1.63;;;;;;;;;;5067178;28;20525;-73
2023/10/16 04:51:09;;;;;;;1.90;1.80;;;;;;;;;;5072757;28;20213;-74
2023/10/16 04:53:48;;;;;;;2.30;1.90;;;;;;;;;;5070712;28;20202;-73
2023/10/16 04:56:30;;;;;;;2.13;1.93;;;;;;;;;;5069981;28;20274;-74
2023/10/16 04:59:12;;;;;;;2.10;2.00;;;;;;;;;;5073480;28;20248;-73
2023/10/16 05:04:49;;;;;;;1.97;1.87;;;;;;;;;;5066414;28;20322;-73
2023/10/16 05:07:34;;;;;;;3.30;2.40;;;;;;;;;;5066051;28;20214;-73
2023/10/16 05:10:17;;;;;;;2.23;2.13;;;;;;;;;;5067434;28;20227;-74
2023/10/16 05:16:27;;;;;;;2.23;2.03;;;;;;;;;;5073177;28;20352;-74
2023/10/16 05:18:47;;;;;;;2.10;2.00;;;;;;;;;;5070362;28;20214;-73
2023/10/16 06:16:35;;;;;;;10.77;1.93;;;;;;;;;;5062478;28;20248;-67
2023/10/16 06:19:10;;;;;;;2.30;1.50;;;;;;;;;;5067140;28;20219;-67
2023/10/16 06:21:38;;;;;;;3.57;1.67;;;;;;;;;;5069468;28;20213;-68
2023/10/16 06:24:17;;;;;;;1.70;1.60;;;;;;;;;;5057162;28;20207;-67
2023/10/16 06:26:46;;;;;;;2.17;1.60;;;;;;;;;;5063709;28;20198;-67
2023/10/16 06:29:13;;;;;;;4.50;2.10;;;;;;;;;;5058079;28;20221;-67
2023/10/16 06:31:49;;;;;;;2.13;1.93;;;;;;;;;;5063565;28;20203;-67
2023/10/16 06:34:17;;;;;;;1.90;1.80;;;;;;;;;;5061654;28;20237;-67
2023/10/16 06:36:45;;;;;;;2.33;2.13;;;;;;;;;;5054415;28;20210;-68
2023/10/16 06:39:22;;;;;;;2.13;2.03;;;;;;;;;;5057145;28;20248;-69
2023/10/16 06:41:53;;;;;;;2.10;2.00;;;;;;;;;;5056672;28;20197;-73
2023/10/16 06:44:21;;;;;;;2.20;2.00;;;;;;;;;;5059134;28;20213;-71
2023/10/16 06:46:49;;;;;;;2.60;2.40;;;;;;;;;;5062461;28;20207;-72
2023/10/16 06:49:26;;;;;;;2.53;2.33;;;;;;;;;;5062379;28;20194;-72
2023/10/16 06:51:56;;;;;;;2.40;2.20;;;;;;;;;;5063619;28;20206;-73
2023/10/16 06:54:23;;;;;;;2.37;2.17;;;;;;;;;;5071490;28;20202;-73
2023/10/16 06:56:50;;;;;;;2.43;2.23;;;;;;;;;;5076686;28;20203;-73
2023/10/16 06:59:18;;;;;;;2.70;2.50;;;;;;;;;;5074559;28;20218;-73
2023/10/16 07:01:46;;;;;;;2.20;2.00;;;;;;;;;;5074605;28;20206;-73
2023/10/16 07:04:14;;;;;;;1.80;1.70;;;;;;;;;;5071550;28;20218;-71
2023/10/16 07:06:44;;;;;;;1.50;1.50;;;;;;;;;;5061207;28;20199;-71
2023/10/16 07:09:12;;;;;;;2.03;1.40;;;;;;;;;;5074096;28;20236;-73
2023/10/16 07:11:42;;;;;;;1.67;1.53;;;;;;;;;;5074635;28;20213;-73
2023/10/16 07:14:12;;;;;;;3.07;2.77;;;;;;;;;;5067134;28;20207;-73
2023/10/16 07:16:41;;;;;;;3.70;2.97;;;;;;;;;;5069970;28;20262;-73
2023/10/16 07:19:08;;;;;;;2.47;2.00;;;;;;;;;;5071744;28;20266;-73
2023/10/16 07:21:35;;;;;;;1.90;1.80;;;;;;;;;;5072393;28;20209;-73
2023/10/16 07:24:04;;;;;;;1.70;1.60;;;;;;;;;;5072917;28;20207;-72
2023/10/16 07:26:34;;;;;;;3.63;1.93;;;;;;;;;;5070773;28;20229;-73
2023/10/16 07:29:02;;;;;;;1.73;1.63;;;;;;;;;;5065445;28;20207;-72
2023/10/16 07:31:29;;;;;;;2.20;2.10;;;;;;;;;;5068827;28;20230;-73
2023/10/16 07:34:04;;;;;;;2.17;1.97;;;;;;;;;;5067840;28;20258;-73
2023/10/16 07:36:31;;;;;;;2.77;2.57;;;;;;;;;;5070258;28;20209;-72
2023/10/16 07:38:58;;;;;;;3.20;3.00;;;;;;;;;;5074141;28;20225;-72
2023/10/16 07:41:27;;;;;;;6.40;5.80;;;;;;;;;;5069850;28;20202;-73
2023/10/16 07:43:57;;;;;;;5.50;5.00;;;;;;;;;;5066235;28;20248;-73
2023/10/16 07:46:30;;;;;;;4.67;4.13;;;;;;;;;;5070713;28;20206;-73
2023/10/16 07:49:01;;;;;;;3.60;3.30;;;;;;;;;;5067063;28;20273;-72
2023/10/16 07:51:28;;;;;;;2.70;2.50;;;;;;;;;;5070487;28;20198;-73
2023/10/16 07:53:56;;;;;;;1.90;1.80;;;;;;;;;;5068092;28;20229;-72
2023/10/16 07:56:28;;;;;;;1.93;1.83;;;;;;;;;;5063200;28;20217;-72
2023/10/16 07:59:06;;;;;;;2.60;2.40;;;;;;;;;;5076857;28;20215;-72
2023/10/16 08:01:36;;;;;;;3.07;2.77;;;;;;;;;;5071815;28;20198;-73
2023/10/16 08:04:06;;;;;;;2.43;2.23;;;;;;;;;;5070818;28;20203;-72
2023/10/16 08:06:37;;;;;;;2.37;2.23;;;;;;;;;;5062030;28;21986;-71
2023/10/16 08:11:56;;;;;;;2.40;2.20;;;;;;;;;;5072803;28;20195;-72
2023/10/16 08:14:26;;;;;;;2.30;2.20;;;;;;;;;;5072311;28;20488;-72
2023/10/16 08:16:58;;;;;;;2.50;2.30;;;;;;;;;;5070372;28;20207;-72
2023/10/16 08:19:25;;;;;;;3.17;2.43;;;;;;;;;;5059412;28;20235;-72
2023/10/16 08:21:55;;;;;;;2.17;1.90;;;;;;;;;;5068859;28;20199;-72
2023/10/16 08:24:24;;;;;;;2.77;2.27;;;;;;;;;;5055469;28;20210;-72
2023/10/16 08:26:52;;;;;;;2.37;2.00;;;;;;;;;;5070706;28;20199;-72
2023/10/16 08:29:20;;;;;;;2.50;1.70;;;;;;;;;;5069212;28;20236;-73
2023/10/16 08:32:27;;;;;;;2.63;1.60;;;;;;;;;;5066746;28;20221;-70
2023/10/16 08:34:40;;;;;;;2.80;1.67;;;;;;;;;;5057520;28;20245;-72
2023/10/16 08:37:08;;;;;;;1.60;1.50;;;;;;;;;;5067183;28;20213;-72
2023/10/16 08:39:37;;;;;;;3.33;2.10;;;;;;;;;;5065005;28;20290;-72
2023/10/16 08:42:18;;;;;;;4.03;2.10;;;;;;;;;;5069864;28;20208;-72
2023/10/16 08:44:46;;;;;;;3.53;2.13;;;;;;;;;;5061160;28;20207;-73
2023/10/16 08:47:20;;;;;;;2.30;2.10;;;;;;;;;;5072467;28;20212;-72
2023/10/16 08:49:52;;;;;;;2.00;1.90;;;;;;;;;;5068977;28;20290;-71
2023/10/16 08:52:23;;;;;;;3.07;2.00;;;;;;;;;;5058956;28;20205;-71
2023/10/16 08:55:02;;;;;;;3.73;2.10;;;;;;;;;;5063601;28;20210;-67
2023/10/16 08:57:29;;;;;;;2.20;1.93;;;;;;;;;;5065206;28;20529;-67
2023/10/16 08:59:58;;;;;;;4.57;2.10;;;;;;;;;;5070377;28;20222;-72
2023/10/16 09:02:28;;;;;;;3.97;2.47;;;;;;;;;;5068759;28;20296;-72
2023/10/16 09:04:56;;;;;;;2.30;2.10;;;;;;;;;;5061509;28;20198;-71
2023/10/16 09:07:25;;;;;;;3.30;2.23;;;;;;;;;;5065770;28;20297;-72
2023/10/16 09:09:55;;;;;;;6.77;2.50;;;;;;;;;;5072151;28;20229;-72
2023/10/16 09:12:26;;;;;;;4.03;2.23;;;;;;;;;;5070252;28;20285;-72
2023/10/16 09:14:53;;;;;;;5.03;2.37;;;;;;;;;;5063434;28;20215;-72
2023/10/16 09:17:21;;;;;;;2.60;2.40;;;;;;;;;;5062355;28;20206;-72
2023/10/16 09:19:53;;;;;;;4.50;2.63;;;;;;;;;;5070617;28;20215;-72
2023/10/16 09:22:23;;;;;;;4.00;2.60;;;;;;;;;;5074371;28;20288;-72
2023/10/16 09:24:52;;;;;;;3.93;2.37;;;;;;;;;;5061716;28;20210;-72
2023/10/16 09:27:22;;;;;;;3.63;2.80;;;;;;;;;;5063188;28;20215;-72
2023/10/16 09:29:54;;;;;;;5.70;3.53;;;;;;;;;;5072345;28;20201;-71
2023/10/16 09:32:25;;;;;;;3.03;2.43;;;;;;;;;;5074887;28;20260;-71
2023/10/16 09:34:54;;;;;;;3.37;2.57;;;;;;;;;;5070382;28;20226;-72
2023/10/16 09:37:29;;;;;;;4.23;2.57;;;;;;;;;;5066104;28;20210;-72
2023/10/16 09:40:00;;;;;;;4.27;2.80;;;;;;;;;;5061263;28;20246;-71
2023/10/16 09:42:28;;;;;;;5.77;2.33;;;;;;;;;;5064233;28;20204;-71
2023/10/16 09:45:07;;;;;;;3.57;2.47;;;;;;;;;;5069249;28;20210;-71
2023/10/16 09:47:48;;;;;;;4.30;2.93;;;;;;;;;;5067783;28;20202;-71
2023/10/16 09:50:16;;;;;;;3.87;2.87;;;;;;;;;;5062268;28;20290;-70
2023/10/16 09:52:45;;;;;;;4.10;3.70;;;;;;;;;;5067011;28;20294;-72
2023/10/16 09:55:12;;;;;;;4.20;2.80;;;;;;;;;;5063419;28;20199;-72
2023/10/16 09:57:43;;;;;;;3.40;3.10;;;;;;;;;;5065719;28;20191;-73
2023/10/16 10:00:28;;;;;;;3.57;3.10;;;;;;;;;;5072552;28;20312;-73
2023/10/16 10:02:57;;;;;;;6.20;4.63;;;;;;;;;;5062960;28;20212;-73
2023/10/16 10:05:34;;;;;;;4.60;2.97;;;;;;;;;;5068747;28;20301;-72
2023/10/16 10:08:11;;;;;;;5.77;3.30;;;;;;;;;;5066917;28;20203;-73
2023/10/16 10:11:04;;;;;;;5.20;3.17;;;;;;;;;;5062024;28;20203;-73
2023/10/16 10:13:34;;;;;;;5.30;2.93;;;;;;;;;;5052205;28;20214;-73
2023/10/16 10:16:06;;;;;;;9.30;6.37;;;;;;;;;;5065759;28;20218;-72
2023/10/16 10:18:42;;;;;;;4.93;3.67;;;;;;;;;;5066967;28;20213;-72
2023/10/16 10:21:18;;;;;;;5.03;2.87;;;;;;;;;;5069221;28;20226;-72
2023/10/16 10:23:45;;;;;;;5.13;3.73;;;;;;;;;;5075038;28;20210;-71
2023/10/16 10:26:18;;;;;;;8.73;5.40;;;;;;;;;;5072850;28;20207;-73
2023/10/16 10:28:45;;;;;;;5.83;2.60;;;;;;;;;;5072261;28;20401;-71
2023/10/16 10:31:14;;;;;;;2.83;1.90;;;;;;;;;;5067992;28;20194;-73
2023/10/16 10:33:51;;;;;;;3.60;2.07;;;;;;;;;;5074040;28;20245;-71
2023/10/16 10:36:38;;;;;;;2.60;1.73;;;;;;;;;;5070805;28;20211;-72
2023/10/16 10:39:33;;;;;;;3.53;2.20;;;;;;;;;;5070707;28;20205;-72
2023/10/16 10:42:03;;;;;;;4.17;2.03;;;;;;;;;;5072067;28;20206;-72
2023/10/16 10:44:31;;;;;;;2.70;2.10;;;;;;;;;;5074814;28;20289;-73
2023/10/16 10:47:00;;;;;;;3.60;2.10;;;;;;;;;;5078294;28;20203;-73
2023/10/16 10:49:33;;;;;;;2.80;1.90;;;;;;;;;;5072812;28;20202;-73
2023/10/16 10:52:02;;;;;;;3.93;1.87;;;;;;;;;;5067320;28;20211;-72
2023/10/16 10:54:29;;;;;;;2.57;2.00;;;;;;;;;;5073501;28;20203;-71
2023/10/16 10:56:59;;;;;;;3.00;2.40;;;;;;;;;;5068449;28;20203;-70
2023/10/16 10:59:39;;;;;;;4.27;1.97;;;;;;;;;;5072671;28;20218;-71
2023/10/16 11:02:21;;;;;;;5.10;1.90;;;;;;;;;;5086163;28;20254;-73
2023/10/16 11:04:53;;;;;;;4.13;2.40;;;;;;;;;;5070101;28;20259;-70
2023/10/16 11:07:25;;;;;;;2.37;1.80;;;;;;;;;;5072605;28;20219;-72
2023/10/16 11:09:52;;;;;;;2.97;1.87;;;;;;;;;;5072694;28;20202;-72
2023/10/16 11:12:24;;;;;;;3.80;1.90;;;;;;;;;;5083606;28;20206;-72
2023/10/16 11:14:53;;;;;;;3.00;1.57;;;;;;;;;;5067188;28;20202;-72
2023/10/16 11:17:34;;;;;;;1.70;1.50;;;;;;;;;;5064568;28;20225;-71
2023/10/16 11:20:15;;;;;;;3.33;1.60;;;;;;;;;;5065203;28;20230;-71
2023/10/16 11:22:44;;;;;;;2.43;1.40;;;;;;;;;;5063497;28;20215;-69
2023/10/16 11:25:13;;;;;;;2.07;1.50;;;;;;;;;;5062657;28;20321;-71
2023/10/16 11:27:42;;;;;;;1.73;1.40;;;;;;;;;;5073831;28;20210;-70
2023/10/16 11:30:11;;;;;;;2.50;1.35;;;;;;;;;;5074034;28;20207;-68
2023/10/16 11:32:41;;;;;;;1.33;1.20;;;;;;;;;;5070544;28;20207;-70
2023/10/16 11:35:15;;;;;;;2.92;1.23;;;;;;;;;;5070435;28;20234;-70
2023/10/16 11:37:44;;;;;;;3.08;1.20;;;;;;;;;;5072709;28;20217;-72
2023/10/16 11:40:19;;;;;;;1.80;1.10;;;;;;;;;;5073960;28;20218;-70
2023/10/16 11:42:46;;;;;;;2.78;1.30;;;;;;;;;;5072265;28;20255;-70
2023/10/16 11:45:20;;;;;;;1.55;1.38;;;;;;;;;;5067584;28;20213;-69
2023/10/16 11:48:10;;;;;;;2.95;1.67;;;;;;;;;;5067698;28;20316;-69
2023/10/16 11:50:38;;;;;;;3.28;1.67;;;;;;;;;;5071993;28;20244;-70
2023/10/16 11:53:07;;;;;;;2.92;1.90;;;;;;;;;;5071859;28;20253;-70
2023/10/16 11:55:36;;;;;;;2.83;2.17;;;;;;;;;;5065573;28;20195;-70
2023/10/16 11:58:03;;;;;;;4.15;1.50;;;;;;;;;;5071222;28;20191;-69
2023/10/16 12:00:33;;;;;;;2.70;1.38;;;;;;;;;;5067343;28;20223;-69
2023/10/16 12:03:07;;;;;;;13.15;7.85;;;;;;;;;;5073864;28;20206;-69
2023/10/16 12:05:34;;;;;;;4.10;3.00;;;;;;;;;;5076127;28;20300;-70
2023/10/16 12:08:02;;;;;;;5.35;2.67;;;;;;;;;;5073035;28;20207;-71
2023/10/16 12:10:29;;;;;;;3.88;2.63;;;;;;;;;;5077437;28;20206;-71
2023/10/16 12:12:58;;;;;;;2.47;1.70;;;;;;;;;;5073660;28;20191;-71
2023/10/16 12:15:25;;;;;;;1.45;1.35;;;;;;;;;;5075527;28;20202;-69
2023/10/16 12:17:55;;;;;;;1.25;1.10;;;;;;;;;;5077856;28;20207;-70
2023/10/16 12:20:26;;;;;;;4.57;1.60;;;;;;;;;;5070488;28;20211;-69
2023/10/16 12:22:54;;;;;;;2.33;1.70;;;;;;;;;;5072968;28;20219;-71
2023/10/16 12:25:23;;;;;;;2.72;1.70;;;;;;;;;;5070967;28;20301;-72
2023/10/16 12:27:51;;;;;;;3.22;2.35;;;;;;;;;;5074184;28;20199;-69
2023/10/16 12:30:19;;;;;;;9.70;6.00;;;;;;;;;;5078672;28;20198;-70
2023/10/16 12:32:47;;;;;;;3.85;2.58;;;;;;;;;;5080334;28;20203;-70
2023/10/16 12:35:18;;;;;;;3.33;1.85;;;;;;;;;;5056671;28;20408;-70
2023/10/16 12:37:45;;;;;;;3.13;1.50;;;;;;;;;;5056305;28;20218;-71
2023/10/16 12:40:27;;;;;;;3.97;2.97;;;;;;;;;;5052534;28;20219;-71
2023/10/16 12:42:55;;;;;;;1.70;1.17;;;;;;;;;;5054150;28;20235;-69
2023/10/16 12:45:23;;;;;;;2.17;1.20;;;;;;;;;;5055110;28;20238;-70
2023/10/16 12:47:52;;;;;;;1.95;1.20;;;;;;;;;;5057309;28;20211;-69
2023/10/16 12:50:23;;;;;;;3.83;2.70;;;;;;;;;;5052693;28;20203;-69
2023/10/16 12:52:51;;;;;;;4.50;1.67;;;;;;;;;;5052719;28;20211;-69
2023/10/16 12:55:19;;;;;;;1.88;1.30;;;;;;;;;;5056075;28;20203;-71
2023/10/16 12:57:48;;;;;;;2.92;1.25;;;;;;;;;;5054367;28;20203;-70
2023/10/16 13:00:16;;;;;;;2.00;1.00;;;;;;;;;;5054908;28;20226;-70
2023/10/16 13:02:45;;;;;;;2.00;1.55;;;;;;;;;;5052406;28;20202;-69
2023/10/16 13:05:14;;;;;;;1.30;0.95;;;;;;;;;;5052312;28;20242;-69
2023/10/16 13:07:42;;;;;;;2.05;1.17;;;;;;;;;;5057130;28;20203;-69
2023/10/16 13:10:11;;;;;;;2.85;1.33;;;;;;;;;;5059541;28;20206;-70
2023/10/16 13:12:39;;;;;;;2.28;1.00;;;;;;;;;;5051762;28;20214;-71
2023/10/16 13:15:08;;;;;;;2.20;1.77;;;;;;;;;;5056818;28;20218;-71
2023/10/16 13:17:36;;;;;;;2.03;1.50;;;;;;;;;;5051434;28;20210;-70
2023/10/16 13:20:05;;;;;;;1.83;1.10;;;;;;;;;;5055549;28;20204;-71
2023/10/16 13:22:32;;;;;;;5.57;3.28;;;;;;;;;;5058444;28;20208;-71
2023/10/16 13:25:00;;;;;;;3.42;2.30;;;;;;;;;;5051947;28;20215;-71
2023/10/16 13:27:27;;;;;;;3.35;1.90;;;;;;;;;;5048881;28;20209;-71
2023/10/16 13:29:54;;;;;;;1.63;1.52;;;;;;;;;;5055736;28;20207;-72
2023/10/16 13:32:22;;;;;;;1.90;1.17;;;;;;;;;;5054070;28;20202;-71
2023/10/16 13:34:50;;;;;;;1.80;1.02;;;;;;;;;;5071345;28;20233;-71
2023/10/16 13:37:20;;;;;;;2.22;1.08;;;;;;;;;;5076908;28;20198;-70
2023/10/16 13:39:47;;;;;;;1.52;1.30;;;;;;;;;;5078164;28;20225;-69
2023/10/16 13:42:15;;;;;;;3.58;1.30;;;;;;;;;;5078293;28;20230;-65
2023/10/16 13:44:42;;;;;;;2.00;1.50;;;;;;;;;;5070154;28;20205;-67
2023/10/16 13:47:10;;;;;;;1.67;1.23;;;;;;;;;;5066586;28;20203;-65
2023/10/16 13:49:37;;;;;;;4.63;1.42;;;;;;;;;;5069280;28;20207;-66
2023/10/16 13:52:07;;;;;;;2.58;1.33;;;;;;;;;;5069847;28;20202;-66
2023/10/16 13:54:38;;;;;;;2.67;1.45;;;;;;;;;;5069592;28;20211;-66
2023/10/16 13:57:07;;;;;;;3.38;1.90;;;;;;;;;;5069489;28;20213;-65
2023/10/16 13:59:34;;;;;;;1.98;1.50;;;;;;;;;;5069117;28;20194;-65
2023/10/16 14:02:02;;;;;;;1.30;1.10;;;;;;;;;;5072234;28;20230;-65
2023/10/16 14:04:33;;;;;;;1.92;0.98;;;;;;;;;;5072108;28;20248;-65
2023/10/16 14:07:00;;;;;;;1.95;1.17;;;;;;;;;;5067609;28;20226;-66
2023/10/16 14:09:28;;;;;;;2.13;0.90;;;;;;;;;;5077047;28;20281;-67
2023/10/16 14:11:58;;;;;;;1.40;1.20;;;;;;;;;;5070856;28;20210;-66
2023/10/16 14:14:26;;;;;;;1.15;0.95;;;;;;;;;;5074588;28;20256;-66
2023/10/16 14:16:54;;;;;;;2.00;1.33;;;;;;;;;;5075411;28;20225;-66
2023/10/16 14:19:23;;;;;;;1.52;1.23;;;;;;;;;;5073203;28;20198;-66
2023/10/16 14:21:51;;;;;;;2.85;1.80;;;;;;;;;;5074766;28;20227;-66
2023/10/16 14:24:22;;;;;;;3.45;1.60;;;;;;;;;;5073698;28;20267;-67
2023/10/16 14:26:49;;;;;;;2.35;1.23;;;;;;;;;;5062097;28;20199;-66
2023/10/16 14:29:19;;;;;;;2.60;1.20;;;;;;;;;;5069416;28;20230;-66
2023/10/16 14:31:48;;;;;;;2.80;1.50;;;;;;;;;;5074597;28;20206;-66
2023/10/16 14:34:19;;;;;;;3.70;1.20;;;;;;;;;;5073331;28;20234;-67
2023/10/16 14:36:46;;;;;;;3.15;1.65;;;;;;;;;;5069054;28;20205;-68
2023/10/16 14:39:14;;;;;;;1.63;1.27;;;;;;;;;;5075469;28;20195;-64
2023/10/16 14:41:42;;;;;;;1.73;1.30;;;;;;;;;;5067117;28;22547;-65
2023/10/16 14:44:09;;;;;;;1.10;1.00;;;;;;;;;;5072378;28;20211;-66
2023/10/16 14:46:38;;;;;;;3.47;1.20;;;;;;;;;;5066636;28;20208;-65
2023/10/16 14:49:08;;;;;;;3.28;1.35;;;;;;;;;;5062811;28;20221;-65
2023/10/16 14:51:37;;;;;;;1.87;1.47;;;;;;;;;;5063689;28;20210;-69
2023/10/16 14:54:05;;;;;;;2.65;1.50;;;;;;;;;;5063204;28;20207;-69
2023/10/16 14:56:36;;;;;;;2.92;2.13;;;;;;;;;;5071346;28;20211;-70
2023/10/16 14:59:05;;;;;;;3.47;1.33;;;;;;;;;;5069489;28;20298;-70
2023/10/16 15:01:33;;;;;;;2.80;1.53;;;;;;;;;;5070531;28;20238;-70
2023/10/16 15:04:02;;;;;;;2.25;1.73;;;;;;;;;;5065513;28;20203;-71
2023/10/16 15:06:29;;;;;;;3.30;1.73;;;;;;;;;;5076330;28;20282;-70
2023/10/16 15:08:57;;;;;;;2.93;1.70;;;;;;;;;;5073284;28;20194;-70
2023/10/16 15:11:26;;;;;;;2.53;1.43;;;;;;;;;;5067782;28;20264;-70
2023/10/16 15:13:54;;;;;;;1.83;1.60;;;;;;;;;;5070125;28;20207;-72
2023/10/16 15:16:21;;;;;;;3.00;1.70;;;;;;;;;;5073665;28;20199;-71
2023/10/16 15:18:49;;;;;;;2.80;1.53;;;;;;;;;;5076630;28;20234;-71
2023/10/16 15:21:17;;;;;;;1.63;1.47;;;;;;;;;;5071178;28;20219;-71
2023/10/16 15:23:45;;;;;;;2.77;1.80;;;;;;;;;;5066338;28;20206;-71
2023/10/16 15:26:12;;;;;;;1.90;1.40;;;;;;;;;;5071907;28;20207;-70
2023/10/16 15:28:40;;;;;;;3.10;1.50;;;;;;;;;;5077564;28;20218;-71
2023/10/16 15:31:07;;;;;;;1.60;1.50;;;;;;;;;;5071419;28;20201;-72
2023/10/16 15:33:34;;;;;;;1.30;1.20;;;;;;;;;;5074644;28;20226;-72
2023/10/16 15:36:02;;;;;;;1.40;1.20;;;;;;;;;;5070557;28;20199;-71
2023/10/16 15:38:30;;;;;;;2.70;1.40;;;;;;;;;;5078573;28;20210;-71
2023/10/16 15:41:00;;;;;;;2.77;1.40;;;;;;;;;;5080873;28;20222;-70
2023/10/16 15:43:27;;;;;;;1.47;1.33;;;;;;;;;;5067522;28;20272;-70
2023/10/16 15:45:54;;;;;;;3.57;1.57;;;;;;;;;;5067164;28;20206;-71
2023/10/16 15:48:21;;;;;;;2.03;1.27;;;;;;;;;;5068074;28;20306;-71
2023/10/16 15:50:49;;;;;;;2.27;1.50;;;;;;;;;;5071870;28;20203;-71
2023/10/16 15:53:16;;;;;;;2.37;1.40;;;;;;;;;;5074524;28;20209;-70
2023/10/16 15:55:46;;;;;;;5.37;2.60;;;;;;;;;;5066077;28;20281;-70
2023/10/16 15:58:14;;;;;;;4.13;3.47;;;;;;;;;;5065551;28;20596;-69
2023/10/16 16:00:41;;;;;;;5.47;3.77;;;;;;;;;;5068837;28;20215;-66
2023/10/16 16:03:09;;;;;;;3.03;2.67;;;;;;;;;;5069897;28;20199;-65
2023/10/16 16:05:37;;;;;;;3.90;2.53;;;;;;;;;;5068794;28;20222;-66
2023/10/16 16:08:04;;;;;;;2.70;1.57;;;;;;;;;;5066619;28;20209;-67
2023/10/16 16:10:32;;;;;;;3.90;1.70;;;;;;;;;;5073114;28;20202;-65
2023/10/16 16:13:03;;;;;;;1.50;1.40;;;;;;;;;;5069511;28;20199;-65
2023/10/16 16:15:30;;;;;;;2.60;1.50;;;;;;;;;;5068983;28;20206;-65
2023/10/16 16:18:00;;;;;;;2.57;1.70;;;;;;;;;;5068084;28;20205;-67